Main page
METAR-TAF:

METAR-TAF

Airports :

Tulcea Airport

Tulcea, Romania

latitude: 45-11N, longitude: 028-49E, elevation: 4 m

Current weather observation

The report was made 44 minutes ago, at 03:30 UTC
Wind 1 kt from variable directions
Temperature 8°C
Humidity 100%
Pressure 1007 hPa
Visibility: 8000 m

METAR: LRTC 030330Z AUTO VRB01KT 8000 FEW130/// 08/08 Q1007

Time: 07:14 (04:14 UTC)

Forecast

The report was made 2 hours and 14 minutes ago, at 02:00 UTC
Forecast valid from 03 at 03 UTC to 03 at 12 UTC
Wind 4 kt from variable directions
Visibility 10 km or more
no clouds below 1500 m and no cumulonimbus
Probability 40% :
Temporary
from 03 at 03 UTC to 03 at 06 UTC
Visibility: 1500 m
Broken clouds at a height of 500 ft
mist
Temporary
from 03 at 09 UTC to 03 at 12 UTC
Visibility: 5000 m
Scattered clouds at a height of 4000 ft, Cumulonimbus.
rain showers

TAF: LRTC 030200Z 0303/0312 VRB04KT CAVOK PROB40 TEMPO 0303/0306 1500 BR BKN005 TEMPO 0309/0312 5000 SHRA SCT040CB

Weather observations and forecasts of more than 4000 airports (METAR and TAF reports).

The available stations are represented by yellow and red dots on the map.

Hover mouse over dot to see the name of the station.

Then click to see weather observations and forecasts.

To change the map : click on the green buttons with a black cross to zoom in, on the green button with a dash to zoom out, or on the green arrows for adjacent maps.


METAR-TAF: